Time;durP1;ratioP1;P1;durP2;ratioP2;P2;SDS_P1;SDS_P2;PMS_P1;PMS_P2;Temp;Humidity;BMP_temperature;BMP_pressure;BME280_temperature;BME280_humidity;BME280_pressure;Samples;Min_cycle;Max_cycle;Signal;HPM_P1;HPM_P2
2022/06/11 00:01:51;;;;;;;16.30;12.23;;;17.30;99.90;;;;;;4996316;28;21254;-53
2022/06/11 00:04:24;;;;;;;16.90;11.80;;;17.30;99.90;;;;;;4991828;28;20451;-53
2022/06/11 00:06:53;;;;;;;15.23;11.60;;;17.30;99.90;;;;;;4996977;28;20968;-52
2022/06/11 00:09:21;;;;;;;14.40;11.80;;;17.30;99.90;;;;;;4999372;28;20505;-53
2022/06/11 00:11:51;;;;;;;18.13;13.10;;;17.30;99.90;;;;;;5005440;28;20422;-53
2022/06/11 00:14:17;;;;;;;14.63;12.10;;;17.30;99.90;;;;;;4999019;28;20470;-52
2022/06/11 00:16:43;;;;;;;15.47;12.63;;;17.30;1.00;;;;;;4997538;28;20443;-53
2022/06/11 00:19:10;;;;;;;12.13;11.03;;;17.30;1.00;;;;;;4992654;28;21202;-53
2022/06/11 00:21:38;;;;;;;19.90;13.10;;;17.30;22.90;;;;;;5002066;28;20537;-53
2022/06/11 00:24:04;;;;;;;15.13;13.17;;;17.30;28.10;;;;;;4994417;28;20975;-52
2022/06/11 00:26:30;;;;;;;15.73;12.33;;;17.30;99.90;;;;;;4993892;28;20463;-53
2022/06/11 00:28:57;;;;;;;13.53;12.17;;;17.20;99.90;;;;;;4988732;28;20777;-53
2022/06/11 00:31:23;;;;;;;15.53;14.03;;;17.20;99.90;;;;;;4993561;28;20195;-53
2022/06/11 00:33:49;;;;;;;15.60;13.27;;;17.30;98.80;;;;;;4989346;28;20450;-53
2022/06/11 00:36:16;;;;;;;18.30;12.90;;;17.20;99.90;;;;;;4993414;28;20538;-53
2022/06/11 00:38:42;;;;;;;14.93;12.47;;;17.20;1.00;;;;;;4992196;28;20913;-53
2022/06/11 00:41:09;;;;;;;15.80;12.53;;;17.20;99.90;;;;;;4988701;28;20943;-52
2022/06/11 00:43:37;;;;;;;16.33;12.07;;;17.20;1.00;;;;;;4994524;28;20445;-53
2022/06/11 00:46:40;;;;;;;15.57;11.87;;;17.20;99.90;;;;;;4994109;28;20471;-53
2022/06/11 00:49:22;;;;;;;15.87;12.97;;;17.20;1.00;;;;;;4995227;28;20967;-53
2022/06/11 00:51:55;;;;;;;17.27;13.47;;;17.20;99.90;;;;;;4994334;28;20507;-53
2022/06/11 00:54:25;;;;;;;17.57;13.10;;;17.20;99.90;;;;;;4992592;28;20443;-53
2022/06/11 00:56:57;;;;;;;17.10;12.90;;;17.20;99.90;;;;;;4993767;28;20435;-53
2022/06/11 00:59:53;;;;;;;18.23;14.00;;;17.20;1.00;;;;;;4985210;28;20487;-53
2022/06/11 01:02:19;;;;;;;17.20;13.47;;;17.20;99.90;;;;;;4994945;28;20451;-53
2022/06/11 01:04:48;;;;;;;19.67;14.67;;;17.20;42.00;;;;;;4999304;28;20434;-53
2022/06/11 01:07:39;;;;;;;19.30;13.13;;;17.20;99.90;;;;;;4996571;28;20468;-53
2022/06/11 01:11:02;;;;;;;17.73;13.50;;;17.20;8.80;;;;;;4988963;28;20435;-53
2022/06/11 01:13:34;;;;;;;15.90;13.00;;;17.20;99.90;;;;;;4973955;28;20452;-53
2022/06/11 01:16:16;;;;;;;16.13;14.10;;;17.30;75.40;;;;;;4963485;28;20459;-53
2022/06/11 01:19:19;;;;;;;16.37;13.97;;;17.30;22.00;;;;;;4988322;28;20938;-53
2022/06/11 01:22:19;;;;;;;17.77;13.63;;;17.30;1.00;;;;;;4992992;28;21171;-53
2022/06/11 01:25:24;;;;;;;17.20;12.60;;;17.60;99.90;;;;;;4989648;28;21214;-53
2022/06/11 01:28:26;;;;;;;14.23;11.30;;;17.70;1.00;;;;;;4991185;28;20517;-53
2022/06/11 01:31:09;;;;;;;13.03;11.50;;;17.80;1.00;;;;;;4994661;28;20492;-52
2022/06/11 01:33:52;;;;;;;14.37;10.40;;;17.80;99.90;;;;;;4991017;28;20447;-52
2022/06/11 01:36:26;;;;;;;13.40;9.83;;;17.90;99.90;;;;;;4991977;28;20526;-53
2022/06/11 01:39:16;;;;;;;11.33;8.97;;;17.90;99.90;;;;;;4991547;28;20454;-61
2022/06/11 01:41:48;;;;;;;17.23;10.90;;;17.90;99.90;;;;;;4987356;28;20446;-52
2022/06/11 01:44:20;;;;;;;10.73;9.30;;;17.90;99.90;;;;;;4990108;28;20444;-52
2022/06/11 01:46:50;;;;;;;13.03;9.37;;;17.90;99.90;;;;;;4993965;28;20476;-52
2022/06/11 01:49:22;;;;;;;11.77;8.83;;;17.80;99.90;;;;;;4991907;28;20806;-52
2022/06/11 01:52:17;;;;;;;12.93;8.97;;;17.80;99.90;;;;;;4994394;28;20439;-52
2022/06/11 01:55:20;;;;;;;15.13;10.10;;;17.80;99.90;;;;;;4986832;28;20464;-52
2022/06/11 01:58:18;;;;;;;10.70;9.40;;;17.80;99.90;;;;;;4989268;28;20537;-52
2022/06/11 02:00:50;;;;;;;10.40;8.47;;;17.70;99.90;;;;;;4987125;28;20524;-52
2022/06/11 02:03:26;;;;;;;15.80;8.93;;;17.70;99.90;;;;;;4990508;28;20443;-52
2022/06/11 02:05:57;;;;;;;22.77;9.63;;;17.60;99.90;;;;;;4999455;28;20541;-52
2022/06/11 02:08:38;;;;;;;13.10;9.70;;;17.50;99.90;;;;;;4987310;28;20663;-52
2022/06/11 02:11:35;;;;;;;15.50;9.20;;;17.50;99.90;;;;;;4990873;28;20909;-53
2022/06/11 02:14:04;;;;;;;12.50;9.00;;;17.40;99.90;;;;;;4986800;28;20439;-52
2022/06/11 02:16:35;;;;;;;13.10;9.13;;;17.30;99.90;;;;;;4988775;28;20849;-53
2022/06/11 02:19:04;;;;;;;12.00;9.67;;;17.30;1.00;;;;;;4992658;28;20447;-52
2022/06/11 02:21:36;;;;;;;14.03;9.40;;;17.30;1.00;;;;;;4990184;28;20882;-52
2022/06/11 02:24:02;;;;;;;10.70;9.37;;;17.30;1.00;;;;;;4999554;28;20467;-52
2022/06/11 02:26:32;;;;;;;12.27;10.37;;;17.30;1.00;;;;;;4993276;28;20471;-52
2022/06/11 02:28:59;;;;;;;15.00;10.03;;;17.30;1.00;;;;;;4996501;28;20575;-53
2022/06/11 02:31:33;;;;;;;16.57;10.57;;;17.20;1.00;;;;;;4993169;28;20466;-52
2022/06/11 02:34:03;;;;;;;13.90;9.40;;;17.20;1.00;;;;;;4992790;28;20450;-52
2022/06/11 02:36:32;;;;;;;9.93;8.70;;;17.30;1.00;;;;;;4990385;28;20568;-53
2022/06/11 02:39:04;;;;;;;11.33;8.90;;;17.30;1.00;;;;;;4999565;28;20843;-52
2022/06/11 02:41:33;;;;;;;12.90;9.07;;;17.20;1.00;;;;;;4988658;28;20451;-53
2022/06/11 02:43:59;;;;;;;15.23;9.50;;;17.20;1.00;;;;;;4988286;28;20439;-52
2022/06/11 02:46:43;;;;;;;12.77;9.70;;;17.30;1.00;;;;;;4994932;28;21099;-52
2022/06/11 02:49:23;;;;;;;11.50;8.57;;;17.40;1.00;;;;;;4997652;28;20447;-51
2022/06/11 02:51:51;;;;;;;15.90;9.20;;;17.40;1.00;;;;;;4992881;28;20435;-52
2022/06/11 02:54:18;;;;;;;10.03;9.03;;;17.40;1.00;;;;;;4993449;28;20980;-52
2022/06/11 02:56:45;;;;;;;12.77;9.33;;;17.40;1.00;;;;;;4993598;28;20465;-52
2022/06/11 02:59:11;;;;;;;18.00;8.93;;;17.40;1.00;;;;;;5003988;28;20450;-53
2022/06/11 03:01:37;;;;;;;12.17;8.70;;;17.50;1.00;;;;;;4991556;28;20940;-52
2022/06/11 03:04:03;;;;;;;9.57;8.60;;;17.50;1.00;;;;;;4990652;28;20439;-52
2022/06/11 03:06:29;;;;;;;10.07;8.40;;;17.50;99.90;;;;;;5001980;28;20500;-52
2022/06/11 03:08:57;;;;;;;15.17;8.37;;;17.60;99.90;;;;;;4998711;28;20516;-52
2022/06/11 03:11:22;;;;;;;9.83;8.40;;;17.60;99.90;;;;;;4995909;28;20458;-53
2022/06/11 03:13:48;;;;;;;11.43;8.37;;;17.60;99.90;;;;;;4995781;28;20439;-53
2022/06/11 03:16:14;;;;;;;8.23;6.63;;;17.60;99.90;;;;;;4996010;28;20588;-52
2022/06/11 03:18:40;;;;;;;11.97;8.10;;;17.60;99.90;;;;;;4994440;28;20189;-52
2022/06/11 03:21:06;;;;;;;11.47;7.63;;;17.60;99.90;;;;;;4993125;28;20784;-52
2022/06/11 03:23:32;;;;;;;12.30;8.20;;;17.60;99.90;;;;;;4996488;28;20453;-52
2022/06/11 03:25:59;;;;;;;10.53;8.80;;;17.60;99.90;;;;;;5004356;28;20443;-52
2022/06/11 03:28:27;;;;;;;13.60;8.80;;;17.60;99.90;;;;;;5000281;28;20266;-52
2022/06/11 03:30:54;;;;;;;8.50;7.43;;;17.60;99.90;;;;;;4994893;28;20933;-52
2022/06/11 03:33:20;;;;;;;13.00;7.80;;;17.60;99.90;;;;;;4993117;28;20513;-52
2022/06/11 03:35:48;;;;;;;12.63;7.77;;;17.60;99.90;;;;;;5003119;28;20968;-51
2022/06/11 03:38:14;;;;;;;10.13;7.60;;;17.60;99.90;;;;;;4995259;28;20518;-53
2022/06/11 03:40:40;;;;;;;10.17;8.00;;;17.60;99.90;;;;;;4995778;28;20577;-53
2022/06/11 03:43:06;;;;;;;15.20;8.67;;;17.60;99.90;;;;;;5001491;28;20195;-52
2022/06/11 03:45:31;;;;;;;10.83;7.80;;;17.60;99.90;;;;;;4994341;28;20192;-52
2022/06/11 03:47:58;;;;;;;12.13;7.80;;;17.50;99.90;;;;;;4993417;28;20251;-52
2022/06/11 03:50:28;;;;;;;9.40;7.43;;;17.50;99.90;;;;;;4995127;28;20188;-52
2022/06/11 03:52:55;;;;;;;13.47;9.23;;;17.50;99.90;;;;;;5000407;28;20472;-53
2022/06/11 03:55:23;;;;;;;9.50;8.50;;;17.50;99.90;;;;;;4992282;28;20435;-53
2022/06/11 03:57:49;;;;;;;12.83;7.50;;;17.50;99.90;;;;;;4993935;28;20462;-53
2022/06/11 04:01:14;;;;;;;10.37;8.80;;;17.40;99.90;;;;;;4996720;28;20435;-52
2022/06/11 04:03:03;;;;;;;14.27;8.43;;;17.40;99.90;;;;;;4994631;28;20467;-52
2022/06/11 04:05:29;;;;;;;14.40;9.30;;;17.40;99.90;;;;;;5000771;28;20968;-52
2022/06/11 04:07:55;;;;;;;11.43;9.03;;;17.40;99.90;;;;;;5001505;28;20505;-53
2022/06/11 04:10:21;;;;;;;11.53;9.07;;;17.40;99.90;;;;;;4992977;28;21227;-52
2022/06/11 04:12:47;;;;;;;11.03;9.67;;;17.50;99.90;;;;;;4992588;28;20223;-52
2022/06/11 04:15:13;;;;;;;13.83;8.30;;;17.50;99.90;;;;;;4990505;28;20184;-52
2022/06/11 04:17:38;;;;;;;12.53;9.83;;;17.60;99.90;;;;;;4995560;28;20493;-52
2022/06/11 04:20:05;;;;;;;14.27;9.70;;;17.70;99.90;;;;;;4995837;28;20192;-53
2022/06/11 04:22:30;;;;;;;15.30;10.20;;;17.80;99.90;;;;;;4997168;28;20250;-52
2022/06/11 04:24:56;;;;;;;21.67;8.43;;;17.90;99.90;;;;;;4992292;28;20435;-52
2022/06/11 04:27:23;;;;;;;10.43;9.20;;;18.00;99.90;;;;;;4996049;28;20551;-53
2022/06/11 04:29:52;;;;;;;16.50;9.37;;;18.00;99.90;;;;;;4993845;28;20586;-52
2022/06/11 04:32:19;;;;;;;10.50;8.10;;;18.00;99.90;;;;;;4992055;28;20487;-52
2022/06/11 04:34:46;;;;;;;10.40;8.60;;;18.10;99.90;;;;;;4992167;28;20435;-52
2022/06/11 04:37:14;;;;;;;13.90;8.27;;;18.10;99.90;;;;;;4994752;28;20468;-53
2022/06/11 04:39:43;;;;;;;10.40;8.67;;;18.20;99.90;;;;;;4995718;28;20814;-53
2022/06/11 04:42:11;;;;;;;8.90;7.87;;;18.40;99.90;;;;;;4991456;28;20466;-52
2022/06/11 04:44:38;;;;;;;11.47;8.30;;;18.50;99.90;;;;;;4991053;28;20494;-52
2022/06/11 04:47:04;;;;;;;11.63;8.10;;;18.70;99.90;;;;;;4994073;28;20482;-52
2022/06/11 04:49:30;;;;;;;10.20;7.87;;;18.80;99.90;;;;;;4991478;28;20440;-52
2022/06/11 04:51:56;;;;;;;12.07;8.13;;;18.90;99.90;;;;;;4994935;28;20561;-53
2022/06/11 04:54:21;;;;;;;11.93;7.90;;;18.90;99.90;;;;;;4999123;28;20180;-53
2022/06/11 04:56:47;;;;;;;10.73;8.10;;;19.00;99.90;;;;;;4991063;28;20184;-51
2022/06/11 04:59:13;;;;;;;8.10;7.30;;;19.10;99.90;;;;;;4999984;28;20199;-52
2022/06/11 05:01:40;;;;;;;11.67;7.20;;;19.20;99.90;;;;;;4993792;28;20191;-52
2022/06/11 05:04:06;;;;;;;10.37;8.00;;;19.30;99.90;;;;;;4994531;28;20183;-52
2022/06/11 05:06:37;;;;;;;14.17;8.07;;;19.40;99.90;;;;;;4993413;28;21035;-52
2022/06/11 05:09:04;;;;;;;10.40;7.70;;;19.30;99.90;;;;;;5004803;28;20559;-52
2022/06/11 05:11:30;;;;;;;10.57;7.70;;;19.30;99.90;;;;;;4999706;28;20411;-52
2022/06/11 05:13:56;;;;;;;10.43;8.17;;;19.20;99.90;;;;;;4990897;28;20500;-52
2022/06/11 05:16:21;;;;;;;12.80;8.47;;;19.20;99.90;;;;;;4995737;28;20271;-52
2022/06/11 05:18:48;;;;;;;11.00;8.40;;;19.40;99.90;;;;;;5000145;28;20640;-52
2022/06/11 05:21:14;;;;;;;14.30;8.67;;;19.50;99.90;;;;;;5000102;28;20319;-53
2022/06/11 05:23:40;;;;;;;9.73;8.70;;;19.60;99.90;;;;;;4999727;28;20443;-52
2022/06/11 05:26:08;;;;;;;11.00;8.00;;;19.70;99.90;;;;;;5001579;28;20501;-52
2022/06/11 05:28:35;;;;;;;11.63;8.90;;;19.70;99.90;;;;;;5004370;28;20462;-52
2022/06/11 05:31:00;;;;;;;16.33;9.17;;;19.60;99.90;;;;;;4993113;28;20481;-52
2022/06/11 05:33:27;;;;;;;13.60;10.10;;;19.60;99.90;;;;;;4997424;28;20435;-51
2022/06/11 05:35:54;;;;;;;14.63;9.50;;;19.70;99.90;;;;;;5002780;28;20518;-52
2022/06/11 05:38:23;;;;;;;10.27;8.90;;;19.90;99.90;;;;;;4994210;28;20780;-53
2022/06/11 05:40:51;;;;;;;15.33;9.33;;;20.20;99.90;;;;;;4995718;28;20484;-52
2022/06/11 05:43:17;;;;;;;14.57;9.83;;;20.20;99.90;;;;;;4999951;28;20438;-52
2022/06/11 05:45:54;;;;;;;13.73;10.03;;;20.20;99.90;;;;;;4998656;28;20480;-52
2022/06/11 05:48:24;;;;;;;14.77;10.17;;;20.20;99.90;;;;;;4996046;28;20441;-52
2022/06/11 05:50:54;;;;;;;12.83;10.50;;;20.10;99.90;;;;;;4997125;28;20430;-52
2022/06/11 05:53:22;;;;;;;15.10;10.27;;;20.00;99.90;;;;;;4997636;28;20492;-52
2022/06/11 05:55:49;;;;;;;14.10;10.10;;;20.10;99.90;;;;;;4993150;28;20441;-52
2022/06/11 05:58:20;;;;;;;16.07;10.00;;;20.50;99.90;;;;;;5001726;28;20498;-51
2022/06/11 06:00:47;;;;;;;15.17;9.97;;;20.90;99.90;;;;;;4995905;28;20418;-51
2022/06/11 06:03:12;;;;;;;14.00;11.13;;;21.20;99.90;;;;;;4998449;28;20435;-52
2022/06/11 06:05:39;;;;;;;15.40;10.30;;;21.30;99.90;;;;;;4993297;28;20500;-52
2022/06/11 06:08:07;;;;;;;18.13;10.67;;;21.30;99.90;;;;;;4992289;28;20849;-52
2022/06/11 06:10:32;;;;;;;12.93;11.53;;;21.10;99.90;;;;;;4987015;28;20439;-51
2022/06/11 06:12:58;;;;;;;16.17;11.57;;;21.00;99.90;;;;;;4990399;28;20836;-52
2022/06/11 06:15:26;;;;;;;16.53;12.00;;;20.90;99.90;;;;;;4994206;28;20238;-51
2022/06/11 06:17:52;;;;;;;17.13;10.97;;;20.80;99.90;;;;;;4998505;28;20245;-51
2022/06/11 06:20:20;;;;;;;18.03;10.90;;;20.90;99.90;;;;;;4995593;28;20453;-52
2022/06/11 06:22:45;;;;;;;18.43;11.63;;;21.30;99.90;;;;;;4992332;28;20541;-52
2022/06/11 06:25:14;;;;;;;18.20;11.73;;;21.50;99.90;;;;;;4991789;28;20439;-52
2022/06/11 06:27:40;;;;;;;15.60;10.90;;;21.90;99.90;;;;;;4997965;28;20306;-52
2022/06/11 06:30:06;;;;;;;15.30;11.67;;;22.10;99.90;;;;;;4995000;28;20664;-51
2022/06/11 06:32:32;;;;;;;13.27;11.77;;;22.30;99.90;;;;;;4992241;28;20180;-52
2022/06/11 06:34:58;;;;;;;17.50;12.23;;;22.60;99.90;;;;;;4994030;28;20776;-52
2022/06/11 06:37:24;;;;;;;17.17;11.97;;;22.50;99.90;;;;;;4995610;28;20225;-52
2022/06/11 06:39:49;;;;;;;17.60;12.30;;;22.30;99.90;;;;;;4996673;28;20195;-52
2022/06/11 06:42:15;;;;;;;15.30;12.90;;;22.20;99.90;;;;;;4997075;28;20937;-51
2022/06/11 06:44:41;;;;;;;15.60;11.03;;;22.10;99.90;;;;;;4998681;28;20187;-53
2022/06/11 06:47:07;;;;;;;15.43;11.23;;;22.00;99.90;;;;;;4993881;28;20227;-51
2022/06/11 06:49:33;;;;;;;15.70;10.37;;;21.80;99.90;;;;;;4993180;28;20478;-51
2022/06/11 06:51:58;;;;;;;14.13;10.23;;;21.70;99.90;;;;;;5001667;28;20246;-51
2022/06/11 06:54:24;;;;;;;14.30;8.83;;;21.60;99.90;;;;;;4997975;28;20214;-53
2022/06/11 06:56:50;;;;;;;16.63;8.70;;;21.50;99.90;;;;;;4994113;28;20210;-52
2022/06/11 06:59:16;;;;;;;16.23;8.40;;;21.50;99.90;;;;;;5000806;28;20541;-53
2022/06/11 07:01:42;;;;;;;15.00;8.43;;;21.60;99.90;;;;;;4993620;28;20457;-51
2022/06/11 07:04:08;;;;;;;19.43;10.73;;;21.60;99.90;;;;;;5001420;28;20478;-52
2022/06/11 07:06:34;;;;;;;13.07;8.30;;;21.70;99.90;;;;;;4990943;28;20972;-51
2022/06/11 07:09:00;;;;;;;13.60;7.53;;;21.70;99.90;;;;;;4990677;28;20212;-51
2022/06/11 07:11:26;;;;;;;11.63;7.20;;;21.70;99.90;;;;;;4995073;28;20422;-52
2022/06/11 07:13:51;;;;;;;13.87;8.67;;;21.70;99.90;;;;;;4991852;28;20435;-51
2022/06/11 07:16:22;;;;;;;12.13;8.10;;;21.60;99.90;;;;;;5000129;28;20716;-51
2022/06/11 07:18:55;;;;;;;14.93;8.07;;;21.50;99.90;;;;;;4993885;28;20191;-51
2022/06/11 07:21:24;;;;;;;10.33;7.70;;;21.70;99.90;;;;;;4998782;28;20573;-51
2022/06/11 07:23:59;;;;;;;11.83;7.40;;;22.00;99.90;;;;;;5000885;28;20554;-51
2022/06/11 07:26:41;;;;;;;14.63;8.13;;;22.40;99.90;;;;;;4999531;28;20469;-52
2022/06/11 07:29:14;;;;;;;8.73;7.27;;;22.20;99.90;;;;;;4995812;28;20438;-51
2022/06/11 07:31:43;;;;;;;14.17;7.07;;;21.80;99.90;;;;;;4999095;28;20427;-52
2022/06/11 07:34:10;;;;;;;12.80;8.57;;;21.50;99.90;;;;;;4997229;28;20527;-51
2022/06/11 07:36:37;;;;;;;13.07;6.83;;;21.70;99.90;;;;;;4997955;28;20445;-52
2022/06/11 07:39:03;;;;;;;15.90;7.60;;;22.30;99.90;;;;;;4994011;28;20451;-51
2022/06/11 07:41:28;;;;;;;19.80;8.67;;;23.20;99.90;;;;;;5003417;28;20434;-51
2022/06/11 07:43:55;;;;;;;11.20;8.40;;;23.60;99.90;;;;;;4995752;28;20220;-51
2022/06/11 07:46:21;;;;;;;11.53;7.70;;;23.90;99.90;;;;;;5002924;28;20192;-51
2022/06/11 07:48:48;;;;;;;9.83;7.60;;;24.10;99.90;;;;;;4996242;28;21072;-52
2022/06/11 07:51:18;;;;;;;11.07;7.60;;;24.10;99.90;;;;;;4995841;28;20892;-51
2022/06/11 07:53:45;;;;;;;10.60;7.13;;;24.30;99.90;;;;;;5005178;28;20920;-51
2022/06/11 07:56:10;;;;;;;12.33;6.93;;;24.40;99.90;;;;;;4994939;28;20443;-51
2022/06/11 07:58:37;;;;;;;11.50;7.10;;;23.80;99.90;;;;;;5002470;28;20433;-51
2022/06/11 08:01:02;;;;;;;15.53;8.70;;;23.40;99.90;;;;;;5007367;28;20188;-51
2022/06/11 08:03:28;;;;;;;12.37;8.43;;;22.90;99.90;;;;;;5007701;28;20458;-50
2022/06/11 08:05:54;;;;;;;12.83;9.10;;;22.60;99.90;;;;;;4994201;28;20224;-51
2022/06/11 08:08:21;;;;;;;13.27;9.07;;;23.00;99.90;;;;;;5004080;28;20217;-51
2022/06/11 08:10:47;;;;;;;15.33;8.60;;;23.50;99.90;;;;;;5003424;28;20489;-51
2022/06/11 08:13:13;;;;;;;11.03;7.70;;;23.80;99.90;;;;;;5001724;28;20933;-50
2022/06/11 08:15:41;;;;;;;12.90;8.30;;;24.00;99.90;;;;;;5006534;28;20417;-51
2022/06/11 08:18:07;;;;;;;14.87;8.83;;;24.30;99.90;;;;;;4991312;28;20435;-51
2022/06/11 08:20:34;;;;;;;11.83;7.70;;;23.90;99.90;;;;;;4995440;28;20984;-51
2022/06/11 08:23:01;;;;;;;11.40;8.13;;;23.70;99.90;;;;;;5003347;28;20196;-51
2022/06/11 08:25:27;;;;;;;14.00;7.63;;;23.80;99.90;;;;;;4998555;28;20526;-51
2022/06/11 08:27:53;;;;;;;9.37;7.60;;;24.20;99.90;;;;;;5005251;28;21141;-50
2022/06/11 08:30:21;;;;;;;10.57;7.50;;;24.70;99.90;;;;;;5004915;28;20191;-51
2022/06/11 08:32:47;;;;;;;10.07;7.60;;;25.10;99.90;;;;;;4999254;28;20579;-51
2022/06/11 08:35:14;;;;;;;10.13;7.17;;;25.20;99.90;;;;;;4995402;28;20439;-51
2022/06/11 08:37:40;;;;;;;10.63;6.67;;;25.50;99.90;;;;;;5006914;28;20525;-51
2022/06/11 08:40:10;;;;;;;9.20;6.90;;;25.90;99.90;;;;;;4999035;28;20530;-51
2022/06/11 08:42:42;;;;;;;9.93;6.90;;;26.50;99.90;;;;;;4993337;28;20189;-51
2022/06/11 08:45:26;;;;;;;7.40;6.40;;;26.50;99.90;;;;;;4998839;28;20443;-51
2022/06/11 08:47:57;;;;;;;8.20;5.77;;;25.90;99.90;;;;;;4989792;28;20467;-51
2022/06/11 08:50:40;;;;;;;9.23;5.27;;;25.40;99.90;;;;;;4996306;28;21205;-51
2022/06/11 08:53:06;;;;;;;4.97;4.30;;;25.40;99.90;;;;;;4993640;28;20454;-51
2022/06/11 08:55:38;;;;;;;6.37;3.77;;;25.90;99.90;;;;;;4991476;28;20509;-51
2022/06/11 08:58:15;;;;;;;7.20;4.77;;;26.00;99.90;;;;;;4998810;28;21000;-51
2022/06/11 09:00:58;;;;;;;7.87;5.03;;;25.60;99.90;;;;;;4997747;28;20450;-52
2022/06/11 09:03:44;;;;;;;6.07;4.73;;;25.80;99.90;;;;;;4994603;28;20418;-51
2022/06/11 09:06:16;;;;;;;8.37;4.53;;;26.30;99.90;;;;;;4989076;28;20466;-51
2022/06/11 09:08:57;;;;;;;6.13;4.67;;;26.70;99.90;;;;;;4997315;28;20526;-51
2022/06/11 09:11:22;;;;;;;7.47;5.67;;;26.50;99.90;;;;;;5001564;28;20423;-51
2022/06/11 09:14:21;;;;;;;10.03;8.00;;;26.10;99.90;;;;;;4998808;28;20442;-51
2022/06/11 09:17:08;;;;;;;9.60;7.50;;;25.40;99.90;;;;;;4993347;28;20188;-51
2022/06/11 09:19:46;;;;;;;7.87;5.60;;;25.50;99.90;;;;;;4991230;28;20439;-51
2022/06/11 09:22:33;;;;;;;7.03;5.33;;;25.70;99.90;;;;;;4993818;28;20481;-51
2022/06/11 09:24:58;;;;;;;9.60;5.20;;;25.90;99.90;;;;;;5003172;28;20434;-51
2022/06/11 09:27:27;;;;;;;10.00;6.50;;;26.10;99.90;;;;;;4997765;28;20462;-52
2022/06/11 09:30:04;;;;;;;5.43;4.70;;;26.20;99.90;;;;;;4999830;28;20192;-51
2022/06/11 09:32:31;;;;;;;6.40;5.43;;;26.00;99.90;;;;;;5004391;28;20434;-52
2022/06/11 09:35:08;;;;;;;7.17;5.77;;;25.80;99.90;;;;;;5005280;28;21531;-51
2022/06/11 09:37:46;;;;;;;9.70;5.23;;;26.00;99.90;;;;;;4995816;28;20422;-51
2022/06/11 09:40:54;;;;;;;6.40;4.70;;;26.70;99.90;;;;;;4995593;28;20493;-51
2022/06/11 09:43:35;;;;;;;8.37;3.90;;;26.40;99.90;;;;;;4988425;28;20447;-51
2022/06/11 09:46:18;;;;;;;6.07;4.20;;;25.80;99.90;;;;;;4991284;28;20443;-51
2022/06/11 09:49:10;;;;;;;3.47;2.67;;;25.60;99.90;;;;;;4995371;28;20514;-52
2022/06/11 09:51:41;;;;;;;5.13;3.33;;;26.20;99.90;;;;;;5001891;28;20498;-51
2022/06/11 09:54:25;;;;;;;4.10;3.00;;;27.20;99.90;;;;;;4996892;28;20974;-51
2022/06/11 09:56:50;;;;;;;4.13;2.77;;;27.10;99.90;;;;;;5004231;28;20751;-52
2022/06/11 09:59:35;;;;;;;3.47;2.80;;;26.70;99.90;;;;;;4993281;28;20462;-51
2022/06/11 10:02:07;;;;;;;4.17;2.70;;;26.70;99.90;;;;;;5003188;28;20221;-51
2022/06/11 10:04:44;;;;;;;6.20;2.90;;;27.20;99.90;;;;;;4985194;28;20752;-51
2022/06/11 10:07:24;;;;;;;7.17;3.60;;;27.90;99.90;;;;;;4995133;28;20545;-51
2022/06/11 10:10:04;;;;;;;3.33;2.50;;;28.00;99.90;;;;;;4996059;28;20439;-50
2022/06/11 10:12:58;;;;;;;5.17;3.17;;;27.70;99.90;;;;;;4997859;28;20461;-51
2022/06/11 10:15:27;;;;;;;7.60;3.00;;;27.50;99.90;;;;;;4994923;28;20443;-51
2022/06/11 10:18:00;;;;;;;4.70;2.83;;;27.70;99.90;;;;;;4998294;28;20457;-51
2022/06/11 10:20:36;;;;;;;6.60;2.73;;;27.40;99.90;;;;;;4996570;28;20443;-51
2022/06/11 10:23:20;;;;;;;8.73;3.30;;;27.60;99.90;;;;;;5003974;28;20446;-52
2022/06/11 10:26:03;;;;;;;6.30;3.00;;;27.40;99.90;;;;;;5003368;28;20407;-51
2022/06/11 10:28:41;;;;;;;6.10;2.87;;;27.80;99.90;;;;;;4991895;28;20465;-60
2022/06/11 10:31:12;;;;;;;5.60;2.93;;;28.30;99.90;;;;;;4991552;28;20406;-51
2022/06/11 10:34:02;;;;;;;9.07;3.97;;;28.30;99.90;;;;;;5003478;28;20470;-50
2022/06/11 10:36:43;;;;;;;6.23;3.00;;;27.70;99.90;;;;;;5000417;28;20485;-51
2022/06/11 10:39:35;;;;;;;3.47;2.43;;;27.70;99.90;;;;;;5001400;28;20506;-51
2022/06/11 10:42:15;;;;;;;6.83;3.20;;;28.40;99.90;;;;;;4992560;28;20493;-51
2022/06/11 10:44:54;;;;;;;11.23;3.47;;;28.40;99.90;;;;;;4999112;28;20427;-51
2022/06/11 10:47:36;;;;;;;6.20;2.93;;;29.00;99.90;;;;;;5003158;28;20474;-51
2022/06/11 10:50:11;;;;;;;8.63;3.20;;;29.00;99.90;;;;;;4998018;28;20422;-51
2022/06/11 10:52:59;;;;;;;5.53;2.80;;;29.30;99.90;;;;;;5004964;28;20434;-50
2022/06/11 10:55:28;;;;;;;6.80;2.97;;;29.10;99.90;;;;;;4994204;28;20852;-50
2022/06/11 10:57:55;;;;;;;10.20;3.47;;;28.50;99.90;;;;;;5005567;28;20549;-50
2022/06/11 11:00:42;;;;;;;10.60;3.40;;;26.90;99.90;;;;;;4993515;28;20515;-51
2022/06/11 11:03:37;;;;;;;8.40;3.10;;;26.10;99.90;;;;;;5001726;28;20430;-51
2022/06/11 11:06:06;;;;;;;11.03;5.47;;;26.80;99.90;;;;;;4991199;28;20442;-51
2022/06/11 11:08:49;;;;;;;9.43;3.40;;;27.60;99.90;;;;;;4991650;28;20478;-51
2022/06/11 11:11:15;;;;;;;11.77;3.53;;;28.20;99.90;;;;;;4990060;28;20901;-51
2022/06/11 11:13:44;;;;;;;13.53;5.00;;;27.50;99.90;;;;;;5007073;28;20423;-50
2022/06/11 11:16:13;;;;;;;15.60;3.50;;;27.20;99.90;;;;;;4995659;28;20446;-50
2022/06/11 11:19:01;;;;;;;8.60;3.30;;;27.00;99.90;;;;;;5004742;28;20470;-51
2022/06/11 11:21:36;;;;;;;8.40;3.47;;;27.10;99.90;;;;;;5003086;28;20478;-50
2022/06/11 11:24:13;;;;;;;9.50;3.13;;;27.20;99.90;;;;;;5006848;28;20438;-51
2022/06/11 11:26:49;;;;;;;13.43;4.03;;;27.20;99.90;;;;;;5001674;28;20878;-50
2022/06/11 11:29:25;;;;;;;14.63;3.70;;;27.30;99.90;;;;;;5001117;28;20525;-51
2022/06/11 11:31:57;;;;;;;8.60;2.93;;;27.80;99.90;;;;;;4998913;28;20520;-51
2022/06/11 11:34:31;;;;;;;12.53;2.97;;;28.40;99.90;;;;;;5000384;28;20488;-51
2022/06/11 11:37:12;;;;;;;8.83;3.33;;;29.20;99.90;;;;;;5002013;28;20442;-50
2022/06/11 11:39:47;;;;;;;9.87;3.47;;;28.20;99.90;;;;;;5004929;28;20454;-50
2022/06/11 11:42:17;;;;;;;7.60;3.53;;;27.80;99.90;;;;;;4985745;28;20445;-51
2022/06/11 11:44:57;;;;;;;9.70;3.00;;;27.80;99.90;;;;;;5003460;28;20450;-50
2022/06/11 11:47:37;;;;;;;12.23;3.57;;;28.00;99.90;;;;;;5001963;28;20562;-51
2022/06/11 11:50:36;;;;;;;13.37;3.23;;;27.90;99.90;;;;;;5001366;28;20924;-50
2022/06/11 11:53:02;;;;;;;8.93;3.20;;;27.60;99.90;;;;;;4990613;28;20443;-50
2022/06/11 11:55:31;;;;;;;8.73;3.10;;;27.00;99.90;;;;;;4997275;28;20457;-50
2022/06/11 11:58:18;;;;;;;8.50;3.10;;;26.70;99.90;;;;;;5004563;28;20589;-51
2022/06/11 12:01:00;;;;;;;8.73;2.90;;;26.80;99.90;;;;;;4998627;28;20998;-50
2022/06/11 12:03:29;;;;;;;9.27;2.80;;;26.40;99.90;;;;;;5001807;28;20426;-51
2022/06/11 12:05:57;;;;;;;12.97;3.60;;;26.30;99.90;;;;;;4999735;28;20442;-50
2022/06/11 12:08:30;;;;;;;7.27;2.60;;;26.60;99.90;;;;;;5007175;28;20466;-51
2022/06/11 12:11:00;;;;;;;8.53;3.27;;;27.70;99.90;;;;;;4999814;28;20500;-50
2022/06/11 12:13:30;;;;;;;7.37;3.17;;;27.90;99.90;;;;;;4998172;28;20435;-51
2022/06/11 12:16:02;;;;;;;17.07;3.43;;;27.80;99.90;;;;;;5004583;28;20569;-50
2022/06/11 12:18:34;;;;;;;8.57;2.63;;;27.50;99.90;;;;;;4994886;28;20435;-51
2022/06/11 12:21:10;;;;;;;8.77;3.60;;;27.40;99.90;;;;;;4989703;28;20486;-51
2022/06/11 12:23:44;;;;;;;10.70;3.10;;;27.60;99.90;;;;;;4997685;28;20454;-50
2022/06/11 12:26:21;;;;;;;11.73;3.27;;;27.40;99.90;;;;;;5002564;28;20458;-51
2022/06/11 12:28:53;;;;;;;11.60;3.83;;;26.60;99.90;;;;;;5006345;28;20449;-50
2022/06/11 12:31:19;;;;;;;11.43;3.27;;;25.80;99.90;;;;;;5003841;28;20460;-51
2022/06/11 12:33:46;;;;;;;10.20;3.90;;;25.10;99.90;;;;;;4993933;28;20431;-51
2022/06/11 12:36:25;;;;;;;12.63;3.77;;;24.60;99.90;;;;;;5005221;28;20419;-51
2022/06/11 12:39:11;;;;;;;11.70;3.27;;;24.30;99.90;;;;;;4997185;28;20479;-50
2022/06/11 12:41:59;;;;;;;15.43;3.83;;;24.20;99.90;;;;;;5000654;28;20462;-51
2022/06/11 12:44:42;;;;;;;14.63;4.50;;;25.30;99.90;;;;;;4996019;28;20983;-51
2022/06/11 12:47:14;;;;;;;10.07;3.70;;;26.40;99.90;;;;;;4999121;28;20490;-51
2022/06/11 12:50:09;;;;;;;10.07;3.33;;;26.90;99.90;;;;;;5003477;28;20443;-51
2022/06/11 12:52:55;;;;;;;12.27;3.60;;;26.90;99.90;;;;;;5001051;28;20436;-51
2022/06/11 12:55:20;;;;;;;11.90;3.40;;;26.70;99.90;;;;;;5007207;28;20453;-51
2022/06/11 12:58:14;;;;;;;11.87;3.23;;;26.30;99.90;;;;;;5000319;28;20462;-50
2022/06/11 13:00:43;;;;;;;7.77;3.40;;;27.00;99.90;;;;;;4992556;28;20194;-51
2022/06/11 13:04:10;;;;;;;10.73;3.30;;;27.40;99.90;;;;;;4992739;28;20781;-50
2022/06/11 13:07:11;;;;;;;10.23;3.50;;;28.00;99.90;;;;;;4933679;29;20522;-50